sensor_id;sensor_type;location;lat;lon;timestamp;pressure;altitude;pressure_sealevel;temperature;humidity
9035;BME280;4552;43.422;24.592;2023-05-08T09:19:41;100054.59;;;20.89;57.28
9035;BME280;4552;43.422;24.592;2023-05-08T09:22:19;100052.31;;;20.48;58.02
9035;BME280;4552;43.422;24.592;2023-05-08T09:24:58;100049.88;;;20.61;58.06
9035;BME280;4552;43.422;24.592;2023-05-08T09:27:26;100052.06;;;20.70;57.76
9035;BME280;4552;43.422;24.592;2023-05-08T09:30:01;100055.41;;;20.74;57.01
9035;BME280;4552;43.422;24.592;2023-05-08T09:32:29;100053.09;;;21.00;56.86
9035;BME280;4552;43.422;24.592;2023-05-08T09:34:58;100063.38;;;21.39;55.63
9035;BME280;4552;43.422;24.592;2023-05-08T09:37:25;100060.19;;;21.48;54.63
9035;BME280;4552;43.422;24.592;2023-05-08T09:40:15;100061.81;;;21.19;54.85
9035;BME280;4552;43.422;24.592;2023-05-08T09:42:44;100049.59;;;21.00;55.59
9035;BME280;4552;43.422;24.592;2023-05-08T09:45:25;100059.69;;;21.26;55.74
9035;BME280;4552;43.422;24.592;2023-05-08T09:47:52;100052.59;;;21.09;55.15
9035;BME280;4552;43.422;24.592;2023-05-08T09:50:21;100050.00;;;20.75;54.86
9035;BME280;4552;43.422;24.592;2023-05-08T09:52:50;100059.91;;;20.89;55.17
9035;BME280;4552;43.422;24.592;2023-05-08T09:55:17;100060.56;;;20.77;55.27
9035;BME280;4552;43.422;24.592;2023-05-08T09:58:03;100070.31;;;21.10;53.53
9035;BME280;4552;43.422;24.592;2023-05-08T10:10:37;100054.94;;;20.83;53.09
9035;BME280;4552;43.422;24.592;2023-05-08T10:13:08;100072.59;;;21.01;53.81
9035;BME280;4552;43.422;24.592;2023-05-08T10:22:24;100084.53;;;20.42;56.28
9035;BME280;4552;43.422;24.592;2023-05-08T10:25:11;100090.50;;;20.30;56.56
9035;BME280;4552;43.422;24.592;2023-05-08T10:27:47;100090.81;;;20.24;56.91
9035;BME280;4552;43.422;24.592;2023-05-08T10:30:24;100084.63;;;20.41;56.11
9035;BME280;4552;43.422;24.592;2023-05-08T10:32:52;100116.28;;;20.80;54.96
9035;BME280;4552;43.422;24.592;2023-05-08T10:35:20;100122.03;;;20.72;55.06
9035;BME280;4552;43.422;24.592;2023-05-08T10:37:48;100113.63;;;20.45;55.69
9035;BME280;4552;43.422;24.592;2023-05-08T10:40:16;100113.16;;;20.54;54.60
9035;BME280;4552;43.422;24.592;2023-05-08T10:42:47;100117.00;;;20.32;54.89
9035;BME280;4552;43.422;24.592;2023-05-08T10:45:17;100116.91;;;20.16;54.54
9035;BME280;4552;43.422;24.592;2023-05-08T10:48:10;100116.41;;;19.73;56.20
9035;BME280;4552;43.422;24.592;2023-05-08T10:50:50;100110.34;;;19.88;55.30
9035;BME280;4552;43.422;24.592;2023-05-08T10:53:30;100100.91;;;19.45;56.50
9035;BME280;4552;43.422;24.592;2023-05-08T10:56:00;100121.56;;;19.39;56.51
9035;BME280;4552;43.422;24.592;2023-05-08T10:58:30;100115.75;;;19.11;57.03
9035;BME280;4552;43.422;24.592;2023-05-08T11:01:15;100119.50;;;19.07;57.06
9035;BME280;4552;43.422;24.592;2023-05-08T11:03:46;100122.44;;;19.01;57.42
9035;BME280;4552;43.422;24.592;2023-05-08T11:06:14;100118.34;;;19.12;58.01
9035;BME280;4552;43.422;24.592;2023-05-08T11:08:47;100122.34;;;19.02;58.11
9035;BME280;4552;43.422;24.592;2023-05-08T11:11:27;100121.72;;;18.77;59.16
9035;BME280;4552;43.422;24.592;2023-05-08T11:14:10;100115.34;;;19.01;58.79
9035;BME280;4552;43.422;24.592;2023-05-08T11:17:06;100124.06;;;19.03;58.32
9035;BME280;4552;43.422;24.592;2023-05-08T11:19:53;100119.94;;;19.16;58.20
9035;BME280;4552;43.422;24.592;2023-05-08T11:22:26;100129.25;;;19.25;56.61
9035;BME280;4552;43.422;24.592;2023-05-08T11:24:59;100134.25;;;19.12;56.24
9035;BME280;4552;43.422;24.592;2023-05-08T11:30:44;100133.97;;;19.00;55.91
9035;BME280;4552;43.422;24.592;2023-05-08T11:33:15;100129.31;;;18.84;56.51
9035;BME280;4552;43.422;24.592;2023-05-08T11:35:53;100133.78;;;18.84;56.76
9035;BME280;4552;43.422;24.592;2023-05-08T11:38:29;100142.09;;;19.15;57.20
9035;BME280;4552;43.422;24.592;2023-05-08T11:40:58;100141.59;;;19.07;55.31
9035;BME280;4552;43.422;24.592;2023-05-08T11:43:31;100154.88;;;18.87;55.54
9035;BME280;4552;43.422;24.592;2023-05-08T11:46:04;100130.94;;;18.88;57.03
9035;BME280;4552;43.422;24.592;2023-05-08T11:48:34;100143.41;;;18.86;57.35
9035;BME280;4552;43.422;24.592;2023-05-08T11:51:07;100131.41;;;18.98;56.63
9035;BME280;4552;43.422;24.592;2023-05-08T11:53:40;100135.38;;;19.27;55.29
9035;BME280;4552;43.422;24.592;2023-05-08T11:56:11;100140.44;;;19.13;54.88
9035;BME280;4552;43.422;24.592;2023-05-08T11:58:41;100131.81;;;19.08;55.65
9035;BME280;4552;43.422;24.592;2023-05-08T12:59:49;100158.28;;;18.70;61.20
9035;BME280;4552;43.422;24.592;2023-05-08T13:02:20;100175.81;;;18.53;63.42
9035;BME280;4552;43.422;24.592;2023-05-08T13:05:01;100166.06;;;18.53;64.18
9035;BME280;4552;43.422;24.592;2023-05-08T13:07:30;100174.50;;;18.63;63.98
9035;BME280;4552;43.422;24.592;2023-05-08T13:09:58;100185.50;;;18.74;63.05
9035;BME280;4552;43.422;24.592;2023-05-08T13:12:28;100174.88;;;18.74;63.82
9035;BME280;4552;43.422;24.592;2023-05-08T13:15:16;100176.91;;;18.69;62.99
9035;BME280;4552;43.422;24.592;2023-05-08T13:17:53;100184.31;;;19.01;61.75
9035;BME280;4552;43.422;24.592;2023-05-08T13:20:35;100189.16;;;18.91;62.83
9035;BME280;4552;43.422;24.592;2023-05-08T13:23:02;100189.38;;;19.07;62.66
9035;BME280;4552;43.422;24.592;2023-05-08T13:25:30;100193.03;;;19.23;60.94
9035;BME280;4552;43.422;24.592;2023-05-08T13:27:58;100200.63;;;18.92;61.65
9035;BME280;4552;43.422;24.592;2023-05-08T13:30:27;100187.63;;;18.66;62.41
9035;BME280;4552;43.422;24.592;2023-05-08T13:32:54;100186.03;;;18.19;64.77
9035;BME280;4552;43.422;24.592;2023-05-08T13:35:22;100193.59;;;18.28;64.84
9035;BME280;4552;43.422;24.592;2023-05-08T13:37:50;100202.84;;;18.41;64.71
9035;BME280;4552;43.422;24.592;2023-05-08T13:40:17;100206.97;;;18.25;66.03
9035;BME280;4552;43.422;24.592;2023-05-08T13:42:50;100193.56;;;18.08;66.65
9035;BME280;4552;43.422;24.592;2023-05-08T13:45:23;100189.09;;;17.87;68.50
9035;BME280;4552;43.422;24.592;2023-05-08T13:47:51;100200.84;;;18.03;67.88
9035;BME280;4552;43.422;24.592;2023-05-08T13:50:18;100194.72;;;18.01;67.79
9035;BME280;4552;43.422;24.592;2023-05-08T13:52:46;100193.41;;;17.68;68.72
9035;BME280;4552;43.422;24.592;2023-05-08T13:55:14;100195.81;;;17.51;70.15
9035;BME280;4552;43.422;24.592;2023-05-08T13:57:41;100200.41;;;17.46;71.08
9035;BME280;4552;43.422;24.592;2023-05-08T14:42:40;100206.25;;;16.29;91.29
9035;BME280;4552;43.422;24.592;2023-05-08T14:45:21;100198.03;;;16.38;93.12
9035;BME280;4552;43.422;24.592;2023-05-08T14:47:48;100200.47;;;16.18;93.14
9035;BME280;4552;43.422;24.592;2023-05-08T14:50:15;100212.53;;;16.25;95.21
9035;BME280;4552;43.422;24.592;2023-05-08T14:52:41;100205.38;;;16.03;93.51
9035;BME280;4552;43.422;24.592;2023-05-08T14:55:09;100208.16;;;15.98;94.42
9035;BME280;4552;43.422;24.592;2023-05-08T14:57:36;100200.75;;;15.82;94.71
9035;BME280;4552;43.422;24.592;2023-05-08T15:00:06;100220.81;;;15.87;94.08
9035;BME280;4552;43.422;24.592;2023-05-08T15:02:33;100227.72;;;15.62;94.22
9035;BME280;4552;43.422;24.592;2023-05-08T15:05:00;100216.28;;;15.63;95.16
9035;BME280;4552;43.422;24.592;2023-05-08T15:07:27;100227.19;;;15.80;96.42
9035;BME280;4552;43.422;24.592;2023-05-08T15:10:10;100228.88;;;15.83;94.63
9035;BME280;4552;43.422;24.592;2023-05-08T15:12:38;100233.91;;;15.90;93.68
9035;BME280;4552;43.422;24.592;2023-05-08T15:15:07;100230.50;;;15.87;96.09
9035;BME280;4552;43.422;24.592;2023-05-08T15:17:34;100231.47;;;15.84;96.40
9035;BME280;4552;43.422;24.592;2023-05-08T15:20:01;100224.75;;;15.74;100.00
9035;BME280;4552;43.422;24.592;2023-05-08T15:22:28;100220.91;;;15.84;100.00
9035;BME280;4552;43.422;24.592;2023-05-08T15:24:55;100221.53;;;15.92;99.39
9035;BME280;4552;43.422;24.592;2023-05-08T15:27:26;100215.47;;;15.89;99.48
9035;BME280;4552;43.422;24.592;2023-05-08T15:29:54;100217.00;;;15.96;99.26
9035;BME280;4552;43.422;24.592;2023-05-08T17:15:47;100355.69;;;14.00;100.00
9035;BME280;4552;43.422;24.592;2023-05-08T17:18:14;100347.03;;;13.93;100.00
9035;BME280;4552;43.422;24.592;2023-05-08T17:20:41;100345.34;;;13.90;100.00
9035;BME280;4552;43.422;24.592;2023-05-08T17:23:39;100358.53;;;13.89;100.00
9035;BME280;4552;43.422;24.592;2023-05-08T17:26:11;100351.63;;;13.83;100.00
9035;BME280;4552;43.422;24.592;2023-05-08T17:28:38;100342.78;;;13.87;100.00
9035;BME280;4552;43.422;24.592;2023-05-08T17:31:09;100352.28;;;13.94;100.00
9035;BME280;4552;43.422;24.592;2023-05-08T17:34:01;100356.22;;;13.72;100.00
9035;BME280;4552;43.422;24.592;2023-05-08T17:36:30;100351.78;;;13.76;100.00
9035;BME280;4552;43.422;24.592;2023-05-08T17:38:57;100364.03;;;13.75;100.00
9035;BME280;4552;43.422;24.592;2023-05-08T17:41:26;100369.84;;;13.92;100.00
9035;BME280;4552;43.422;24.592;2023-05-08T17:43:53;100382.91;;;13.97;100.00
9035;BME280;4552;43.422;24.592;2023-05-08T18:06:32;100396.81;;;13.59;100.00
9035;BME280;4552;43.422;24.592;2023-05-08T18:08:59;100412.66;;;13.56;100.00
9035;BME280;4552;43.422;24.592;2023-05-08T18:11:26;100412.78;;;13.50;100.00
9035;BME280;4552;43.422;24.592;2023-05-08T18:13:55;100409.34;;;13.45;100.00
9035;BME280;4552;43.422;24.592;2023-05-08T18:26:30;100429.25;;;13.60;100.00
9035;BME280;4552;43.422;24.592;2023-05-08T18:28:57;100437.25;;;13.55;100.00
9035;BME280;4552;43.422;24.592;2023-05-08T18:31:24;100436.38;;;13.55;100.00
9035;BME280;4552;43.422;24.592;2023-05-08T18:33:54;100436.13;;;13.67;100.00
9035;BME280;4552;43.422;24.592;2023-05-08T18:36:21;100436.72;;;13.82;100.00
9035;BME280;4552;43.422;24.592;2023-05-08T18:38:48;100445.19;;;14.00;100.00
9035;BME280;4552;43.422;24.592;2023-05-08T18:41:15;100440.44;;;14.17;100.00
9035;BME280;4552;43.422;24.592;2023-05-08T18:43:43;100457.25;;;14.10;100.00
9035;BME280;4552;43.422;24.592;2023-05-08T19:55:09;100474.09;;;12.96;100.00
9035;BME280;4552;43.422;24.592;2023-05-08T19:57:36;100456.78;;;12.83;100.00
9035;BME280;4552;43.422;24.592;2023-05-08T20:00:03;100461.88;;;12.94;100.00
9035;BME280;4552;43.422;24.592;2023-05-08T20:02:31;100468.16;;;12.85;100.00
9035;BME280;4552;43.422;24.592;2023-05-08T20:04:58;100467.25;;;12.85;100.00
9035;BME280;4552;43.422;24.592;2023-05-08T20:07:25;100457.66;;;12.82;100.00
9035;BME280;4552;43.422;24.592;2023-05-08T20:09:53;100467.31;;;12.82;100.00
9035;BME280;4552;43.422;24.592;2023-05-08T20:12:24;100470.97;;;12.70;100.00
9035;BME280;4552;43.422;24.592;2023-05-08T20:14:54;100464.91;;;12.65;100.00
9035;BME280;4552;43.422;24.592;2023-05-08T20:17:34;100468.41;;;12.66;100.00
9035;BME280;4552;43.422;24.592;2023-05-08T20:20:06;100457.78;;;12.73;100.00
9035;BME280;4552;43.422;24.592;2023-05-08T20:22:33;100470.34;;;12.50;100.00
9035;BME280;4552;43.422;24.592;2023-05-08T20:25:02;100462.28;;;12.65;100.00
9035;BME280;4552;43.422;24.592;2023-05-08T20:27:30;100459.66;;;12.67;100.00
9035;BME280;4552;43.422;24.592;2023-05-08T20:29:57;100464.00;;;12.68;100.00
9035;BME280;4552;43.422;24.592;2023-05-08T20:32:24;100463.38;;;12.49;100.00
9035;BME280;4552;43.422;24.592;2023-05-08T20:34:51;100467.78;;;12.46;100.00
9035;BME280;4552;43.422;24.592;2023-05-08T20:37:18;100460.69;;;12.52;100.00
9035;BME280;4552;43.422;24.592;2023-05-08T20:39:45;100465.91;;;12.57;100.00
9035;BME280;4552;43.422;24.592;2023-05-08T20:42:12;100456.97;;;12.71;100.00
9035;BME280;4552;43.422;24.592;2023-05-08T20:44:40;100465.06;;;12.56;100.00
9035;BME280;4552;43.422;24.592;2023-05-08T20:47:07;100477.34;;;12.51;100.00
9035;BME280;4552;43.422;24.592;2023-05-08T20:49:34;100467.03;;;12.38;100.00
9035;BME280;4552;43.422;24.592;2023-05-08T20:52:01;100481.78;;;12.48;100.00
9035;BME280;4552;43.422;24.592;2023-05-08T21:52:18;100480.16;;;12.39;100.00
9035;BME280;4552;43.422;24.592;2023-05-08T21:54:46;100475.59;;;12.50;100.00
9035;BME280;4552;43.422;24.592;2023-05-08T21:57:13;100477.34;;;12.51;100.00
9035;BME280;4552;43.422;24.592;2023-05-08T21:59:43;100483.53;;;12.46;100.00
9035;BME280;4552;43.422;24.592;2023-05-08T22:02:11;100475.78;;;12.35;100.00
9035;BME280;4552;43.422;24.592;2023-05-08T22:04:38;100476.88;;;12.20;100.00
9035;BME280;4552;43.422;24.592;2023-05-08T22:07:05;100481.31;;;12.14;100.00
9035;BME280;4552;43.422;24.592;2023-05-08T22:09:33;100479.56;;;12.13;100.00
9035;BME280;4552;43.422;24.592;2023-05-08T22:12:00;100480.47;;;12.09;100.00
9035;BME280;4552;43.422;24.592;2023-05-08T22:14:32;100455.28;;;11.96;100.00
9035;BME280;4552;43.422;24.592;2023-05-08T22:16:59;100458.75;;;11.98;100.00
9035;BME280;4552;43.422;24.592;2023-05-08T22:19:26;100475.16;;;12.15;100.00
9035;BME280;4552;43.422;24.592;2023-05-08T22:21:53;100470.69;;;12.23;100.00
9035;BME280;4552;43.422;24.592;2023-05-08T22:24:21;100475.94;;;12.23;100.00
9035;BME280;4552;43.422;24.592;2023-05-08T22:26:49;100471.66;;;12.16;100.00
9035;BME280;4552;43.422;24.592;2023-05-08T22:29:16;100461.97;;;12.24;100.00
9035;BME280;4552;43.422;24.592;2023-05-08T22:31:57;100469.03;;;12.16;100.00
9035;BME280;4552;43.422;24.592;2023-05-08T22:34:27;100472.06;;;11.77;100.00
9035;BME280;4552;43.422;24.592;2023-05-08T22:36:58;100465.13;;;11.74;100.00
9035;BME280;4552;43.422;24.592;2023-05-08T22:39:25;100473.94;;;11.67;100.00
9035;BME280;4552;43.422;24.592;2023-05-08T22:41:54;100474.75;;;11.71;100.00
9035;BME280;4552;43.422;24.592;2023-05-08T22:44:47;100479.13;;;11.75;100.00
9035;BME280;4552;43.422;24.592;2023-05-08T22:54:20;100471.00;;;11.96;100.00
9035;BME280;4552;43.422;24.592;2023-05-08T22:56:47;100473.63;;;11.96;100.00
9035;BME280;4552;43.422;24.592;2023-05-08T22:59:16;100475.47;;;11.88;100.00
9035;BME280;4552;43.422;24.592;2023-05-08T23:01:43;100468.50;;;11.87;100.00
9035;BME280;4552;43.422;24.592;2023-05-08T23:04:10;100467.72;;;11.76;100.00
9035;BME280;4552;43.422;24.592;2023-05-08T23:06:37;100462.41;;;11.82;100.00
9035;BME280;4552;43.422;24.592;2023-05-08T23:09:04;100472.84;;;11.88;100.00
9035;BME280;4552;43.422;24.592;2023-05-08T23:11:31;100471.03;;;11.94;100.00
9035;BME280;4552;43.422;24.592;2023-05-08T23:14:12;100472.94;;;11.79;100.00
9035;BME280;4552;43.422;24.592;2023-05-08T23:16:55;100470.09;;;12.00;100.00
9035;BME280;4552;43.422;24.592;2023-05-08T23:19:23;100470.81;;;12.14;100.00
9035;BME280;4552;43.422;24.592;2023-05-08T23:21:50;100470.66;;;12.26;100.00
9035;BME280;4552;43.422;24.592;2023-05-08T23:24:17;100474.34;;;12.13;100.00
9035;BME280;4552;43.422;24.592;2023-05-08T23:26:43;100482.97;;;12.24;100.00
9035;BME280;4552;43.422;24.592;2023-05-08T23:29:12;100481.09;;;12.32;100.00
9035;BME280;4552;43.422;24.592;2023-05-08T23:41:45;100474.59;;;11.90;100.00
9035;BME280;4552;43.422;24.592;2023-05-08T23:44:13;100483.19;;;12.00;100.00
9035;BME280;4552;43.422;24.592;2023-05-08T23:53:25;100472.00;;;11.83;100.00
9035;BME280;4552;43.422;24.592;2023-05-08T23:55:55;100466.75;;;11.87;100.00
9035;BME280;4552;43.422;24.592;2023-05-08T23:58:23;100478.19;;;11.79;100.00
